sensor_id;sensor_type;location;lat;lon;timestamp;temperature;humidity
1702;DHT22;848;48.354;10.064;2024-01-30T00:00:04;0.40;99.90
1702;DHT22;848;48.354;10.064;2024-01-30T00:02:31;0.50;99.90
1702;DHT22;848;48.354;10.064;2024-01-30T00:04:58;0.50;99.90
1702;DHT22;848;48.354;10.064;2024-01-30T00:07:25;0.50;99.90
1702;DHT22;848;48.354;10.064;2024-01-30T00:09:52;0.40;99.90
1702;DHT22;848;48.354;10.064;2024-01-30T00:12:20;0.40;99.90
1702;DHT22;848;48.354;10.064;2024-01-30T00:14:47;0.40;99.90
1702;DHT22;848;48.354;10.064;2024-01-30T00:17:14;0.30;99.90
1702;DHT22;848;48.354;10.064;2024-01-30T00:19:41;0.40;99.90
1702;DHT22;848;48.354;10.064;2024-01-30T00:22:08;0.50;99.90
1702;DHT22;848;48.354;10.064;2024-01-30T00:24:35;0.30;99.90
1702;DHT22;848;48.354;10.064;2024-01-30T00:27:02;0.20;99.90
1702;DHT22;848;48.354;10.064;2024-01-30T00:29:30;0.20;99.90
1702;DHT22;848;48.354;10.064;2024-01-30T00:31:59;0.20;99.90
1702;DHT22;848;48.354;10.064;2024-01-30T00:34:26;0.20;99.90
1702;DHT22;848;48.354;10.064;2024-01-30T00:36:52;0.10;99.90
1702;DHT22;848;48.354;10.064;2024-01-30T00:39:19;0.20;99.90
1702;DHT22;848;48.354;10.064;2024-01-30T00:41:46;0.20;99.90
1702;DHT22;848;48.354;10.064;2024-01-30T00:44:13;0.30;99.90
1702;DHT22;848;48.354;10.064;2024-01-30T00:46:41;0.30;99.90
1702;DHT22;848;48.354;10.064;2024-01-30T00:49:08;0.30;99.90
1702;DHT22;848;48.354;10.064;2024-01-30T00:51:35;0.30;99.90
1702;DHT22;848;48.354;10.064;2024-01-30T00:54:02;0.20;99.90
1702;DHT22;848;48.354;10.064;2024-01-30T00:56:29;0.30;99.90
1702;DHT22;848;48.354;10.064;2024-01-30T00:58:56;0.30;99.90
1702;DHT22;848;48.354;10.064;2024-01-30T01:01:23;0.30;99.90
1702;DHT22;848;48.354;10.064;2024-01-30T01:03:51;0.20;99.90
1702;DHT22;848;48.354;10.064;2024-01-30T01:06:18;0.20;99.90
1702;DHT22;848;48.354;10.064;2024-01-30T01:08:45;0.20;99.90
1702;DHT22;848;48.354;10.064;2024-01-30T01:11:12;0.20;99.90
1702;DHT22;848;48.354;10.064;2024-01-30T01:13:39;0.30;99.90
1702;DHT22;848;48.354;10.064;2024-01-30T01:16:06;0.20;99.90
1702;DHT22;848;48.354;10.064;2024-01-30T01:18:33;0.20;99.90
1702;DHT22;848;48.354;10.064;2024-01-30T01:21:01;0.20;99.90
1702;DHT22;848;48.354;10.064;2024-01-30T01:23:28;0.20;99.90
1702;DHT22;848;48.354;10.064;2024-01-30T01:25:55;0.20;99.90
1702;DHT22;848;48.354;10.064;2024-01-30T01:28:21;0.30;99.90
1702;DHT22;848;48.354;10.064;2024-01-30T01:30:48;0.30;99.90
1702;DHT22;848;48.354;10.064;2024-01-30T01:33:15;0.30;99.90
1702;DHT22;848;48.354;10.064;2024-01-30T01:35:43;0.30;99.90
1702;DHT22;848;48.354;10.064;2024-01-30T01:38:11;0.30;99.90
1702;DHT22;848;48.354;10.064;2024-01-30T01:40:38;0.30;99.90
1702;DHT22;848;48.354;10.064;2024-01-30T01:43:06;0.40;99.90
1702;DHT22;848;48.354;10.064;2024-01-30T01:45:33;0.40;99.90
1702;DHT22;848;48.354;10.064;2024-01-30T01:48:00;0.40;99.90
1702;DHT22;848;48.354;10.064;2024-01-30T01:50:27;0.50;99.90
1702;DHT22;848;48.354;10.064;2024-01-30T01:53:34;0.50;99.90
1702;DHT22;848;48.354;10.064;2024-01-30T01:56:01;0.50;99.90
1702;DHT22;848;48.354;10.064;2024-01-30T01:58:29;0.70;99.90
1702;DHT22;848;48.354;10.064;2024-01-30T02:00:56;0.60;99.90
1702;DHT22;848;48.354;10.064;2024-01-30T02:03:24;0.60;99.90
1702;DHT22;848;48.354;10.064;2024-01-30T02:05:51;0.60;99.90
1702;DHT22;848;48.354;10.064;2024-01-30T02:08:18;0.70;99.90
1702;DHT22;848;48.354;10.064;2024-01-30T02:10:46;0.70;99.90
1702;DHT22;848;48.354;10.064;2024-01-30T02:13:13;0.70;99.90
1702;DHT22;848;48.354;10.064;2024-01-30T02:15:40;0.80;99.90
1702;DHT22;848;48.354;10.064;2024-01-30T02:18:07;0.80;99.90
1702;DHT22;848;48.354;10.064;2024-01-30T02:20:35;0.80;99.90
1702;DHT22;848;48.354;10.064;2024-01-30T02:23:04;0.90;99.90
1702;DHT22;848;48.354;10.064;2024-01-30T02:25:35;0.90;99.90
1702;DHT22;848;48.354;10.064;2024-01-30T02:28:02;0.90;99.90
1702;DHT22;848;48.354;10.064;2024-01-30T02:30:29;0.90;99.90
1702;DHT22;848;48.354;10.064;2024-01-30T02:32:56;0.90;99.90
1702;DHT22;848;48.354;10.064;2024-01-30T02:35:23;0.90;99.90
1702;DHT22;848;48.354;10.064;2024-01-30T02:37:50;0.90;99.90
1702;DHT22;848;48.354;10.064;2024-01-30T02:40:18;1.00;99.90
1702;DHT22;848;48.354;10.064;2024-01-30T02:42:45;1.00;99.90
1702;DHT22;848;48.354;10.064;2024-01-30T02:45:13;1.00;99.90
1702;DHT22;848;48.354;10.064;2024-01-30T02:47:40;0.90;99.90
1702;DHT22;848;48.354;10.064;2024-01-30T02:50:07;1.00;99.90
1702;DHT22;848;48.354;10.064;2024-01-30T02:52:34;1.00;99.90
1702;DHT22;848;48.354;10.064;2024-01-30T02:55:02;0.90;99.90
1702;DHT22;848;48.354;10.064;2024-01-30T02:57:30;0.80;99.90
1702;DHT22;848;48.354;10.064;2024-01-30T02:59:57;0.80;99.90
1702;DHT22;848;48.354;10.064;2024-01-30T03:02:23;0.80;99.90
1702;DHT22;848;48.354;10.064;2024-01-30T03:04:50;0.70;99.90
1702;DHT22;848;48.354;10.064;2024-01-30T03:07:17;0.70;99.90
1702;DHT22;848;48.354;10.064;2024-01-30T03:09:44;0.70;99.90
1702;DHT22;848;48.354;10.064;2024-01-30T03:12:10;0.60;99.90
1702;DHT22;848;48.354;10.064;2024-01-30T03:14:38;0.60;99.90
1702;DHT22;848;48.354;10.064;2024-01-30T03:17:05;0.50;99.90
1702;DHT22;848;48.354;10.064;2024-01-30T03:19:32;0.40;99.90
1702;DHT22;848;48.354;10.064;2024-01-30T03:21:59;0.40;99.90
1702;DHT22;848;48.354;10.064;2024-01-30T03:24:26;0.50;99.90
1702;DHT22;848;48.354;10.064;2024-01-30T03:26:53;0.40;99.90
1702;DHT22;848;48.354;10.064;2024-01-30T03:29:20;0.30;99.90
1702;DHT22;848;48.354;10.064;2024-01-30T03:31:48;0.30;99.90
1702;DHT22;848;48.354;10.064;2024-01-30T03:34:15;0.30;99.90
1702;DHT22;848;48.354;10.064;2024-01-30T03:36:42;0.30;99.90
1702;DHT22;848;48.354;10.064;2024-01-30T03:39:09;0.30;99.90
1702;DHT22;848;48.354;10.064;2024-01-30T03:41:36;0.70;99.90
1702;DHT22;848;48.354;10.064;2024-01-30T03:44:03;0.30;99.90
1702;DHT22;848;48.354;10.064;2024-01-30T03:46:30;0.30;99.90
1702;DHT22;848;48.354;10.064;2024-01-30T03:48:58;0.30;99.90
1702;DHT22;848;48.354;10.064;2024-01-30T03:51:25;0.30;99.90
1702;DHT22;848;48.354;10.064;2024-01-30T03:53:52;0.30;99.90
1702;DHT22;848;48.354;10.064;2024-01-30T03:56:19;0.30;99.90
1702;DHT22;848;48.354;10.064;2024-01-30T03:58:45;0.30;99.90
1702;DHT22;848;48.354;10.064;2024-01-30T04:01:13;0.30;99.90
1702;DHT22;848;48.354;10.064;2024-01-30T04:03:42;0.30;99.90
1702;DHT22;848;48.354;10.064;2024-01-30T04:06:11;0.20;99.90
1702;DHT22;848;48.354;10.064;2024-01-30T04:08:38;0.20;99.90
1702;DHT22;848;48.354;10.064;2024-01-30T04:11:05;0.30;99.90
1702;DHT22;848;48.354;10.064;2024-01-30T04:13:31;0.20;99.90
1702;DHT22;848;48.354;10.064;2024-01-30T04:15:59;0.20;99.90
1702;DHT22;848;48.354;10.064;2024-01-30T04:18:26;0.20;99.90
1702;DHT22;848;48.354;10.064;2024-01-30T04:20:53;0.20;99.90
1702;DHT22;848;48.354;10.064;2024-01-30T04:23:22;0.20;99.90
1702;DHT22;848;48.354;10.064;2024-01-30T04:25:49;0.40;99.90
1702;DHT22;848;48.354;10.064;2024-01-30T04:28:15;0.30;99.90
1702;DHT22;848;48.354;10.064;2024-01-30T04:30:42;0.20;99.90
1702;DHT22;848;48.354;10.064;2024-01-30T04:33:10;0.20;99.90
1702;DHT22;848;48.354;10.064;2024-01-30T04:35:37;0.20;99.90
1702;DHT22;848;48.354;10.064;2024-01-30T04:38:04;0.20;99.90
1702;DHT22;848;48.354;10.064;2024-01-30T04:40:33;0.10;99.90
1702;DHT22;848;48.354;10.064;2024-01-30T04:42:59;0.10;99.90
1702;DHT22;848;48.354;10.064;2024-01-30T04:45:26;0.00;99.90
1702;DHT22;848;48.354;10.064;2024-01-30T04:47:53;0.00;99.90
1702;DHT22;848;48.354;10.064;2024-01-30T04:50:20;0.10;99.90
1702;DHT22;848;48.354;10.064;2024-01-30T04:52:47;0.20;99.90
1702;DHT22;848;48.354;10.064;2024-01-30T04:55:14;0.20;99.90
1702;DHT22;848;48.354;10.064;2024-01-30T04:57:42;0.20;99.90
1702;DHT22;848;48.354;10.064;2024-01-30T05:00:10;0.20;99.90
1702;DHT22;848;48.354;10.064;2024-01-30T05:02:37;0.10;99.90
1702;DHT22;848;48.354;10.064;2024-01-30T05:05:04;0.10;99.90
1702;DHT22;848;48.354;10.064;2024-01-30T05:07:31;0.10;99.90
1702;DHT22;848;48.354;10.064;2024-01-30T05:09:58;0.20;99.90
1702;DHT22;848;48.354;10.064;2024-01-30T05:12:26;0.20;99.90
1702;DHT22;848;48.354;10.064;2024-01-30T05:14:54;0.20;99.90
1702;DHT22;848;48.354;10.064;2024-01-30T05:17:21;0.30;99.90
1702;DHT22;848;48.354;10.064;2024-01-30T05:19:47;0.40;99.90
1702;DHT22;848;48.354;10.064;2024-01-30T05:22:14;0.30;99.90
1702;DHT22;848;48.354;10.064;2024-01-30T05:24:44;0.30;99.90
1702;DHT22;848;48.354;10.064;2024-01-30T05:27:11;0.30;99.90
1702;DHT22;848;48.354;10.064;2024-01-30T05:29:39;0.20;99.90
1702;DHT22;848;48.354;10.064;2024-01-30T05:32:07;0.20;99.90
1702;DHT22;848;48.354;10.064;2024-01-30T05:34:35;0.20;99.90
1702;DHT22;848;48.354;10.064;2024-01-30T05:37:02;0.20;99.90
1702;DHT22;848;48.354;10.064;2024-01-30T05:39:29;0.20;99.90
1702;DHT22;848;48.354;10.064;2024-01-30T05:41:58;0.20;99.90
1702;DHT22;848;48.354;10.064;2024-01-30T05:44:25;0.10;99.90
1702;DHT22;848;48.354;10.064;2024-01-30T05:46:52;0.10;99.90
1702;DHT22;848;48.354;10.064;2024-01-30T05:49:20;0.10;99.90
1702;DHT22;848;48.354;10.064;2024-01-30T05:51:47;0.00;99.90
1702;DHT22;848;48.354;10.064;2024-01-30T05:54:14;0.10;99.90
1702;DHT22;848;48.354;10.064;2024-01-30T05:56:41;0.10;99.90
1702;DHT22;848;48.354;10.064;2024-01-30T05:59:07;0.10;99.90
1702;DHT22;848;48.354;10.064;2024-01-30T06:01:34;0.10;99.90
1702;DHT22;848;48.354;10.064;2024-01-30T06:04:01;0.10;99.90
1702;DHT22;848;48.354;10.064;2024-01-30T06:06:30;0.10;99.90
1702;DHT22;848;48.354;10.064;2024-01-30T06:08:56;0.10;99.90
1702;DHT22;848;48.354;10.064;2024-01-30T06:11:23;0.20;99.90
1702;DHT22;848;48.354;10.064;2024-01-30T06:13:50;0.20;99.90
1702;DHT22;848;48.354;10.064;2024-01-30T06:16:17;0.20;99.90
1702;DHT22;848;48.354;10.064;2024-01-30T06:18:46;0.20;99.90
1702;DHT22;848;48.354;10.064;2024-01-30T06:21:13;0.30;99.90
1702;DHT22;848;48.354;10.064;2024-01-30T06:23:41;0.30;99.90
1702;DHT22;848;48.354;10.064;2024-01-30T06:26:08;0.30;99.90
1702;DHT22;848;48.354;10.064;2024-01-30T06:28:35;0.20;99.90
1702;DHT22;848;48.354;10.064;2024-01-30T06:31:02;0.30;99.90
1702;DHT22;848;48.354;10.064;2024-01-30T06:33:29;0.30;99.90
1702;DHT22;848;48.354;10.064;2024-01-30T06:35:56;0.30;99.90
1702;DHT22;848;48.354;10.064;2024-01-30T06:38:27;0.30;99.90
1702;DHT22;848;48.354;10.064;2024-01-30T06:41:05;0.30;99.90
1702;DHT22;848;48.354;10.064;2024-01-30T06:43:35;0.30;99.90
1702;DHT22;848;48.354;10.064;2024-01-30T06:46:02;0.30;99.90
1702;DHT22;848;48.354;10.064;2024-01-30T06:48:29;0.30;99.90
1702;DHT22;848;48.354;10.064;2024-01-30T06:50:57;0.30;99.90
1702;DHT22;848;48.354;10.064;2024-01-30T06:53:24;0.30;99.90
1702;DHT22;848;48.354;10.064;2024-01-30T06:55:51;0.30;99.90
1702;DHT22;848;48.354;10.064;2024-01-30T06:58:20;0.40;99.90
1702;DHT22;848;48.354;10.064;2024-01-30T07:00:47;0.40;99.90
1702;DHT22;848;48.354;10.064;2024-01-30T07:03:13;0.40;99.90
1702;DHT22;848;48.354;10.064;2024-01-30T07:05:40;0.40;99.90
1702;DHT22;848;48.354;10.064;2024-01-30T07:08:07;0.40;99.90
1702;DHT22;848;48.354;10.064;2024-01-30T07:10:34;0.50;99.90
1702;DHT22;848;48.354;10.064;2024-01-30T07:13:01;0.50;99.90
1702;DHT22;848;48.354;10.064;2024-01-30T07:15:31;0.60;99.90
1702;DHT22;848;48.354;10.064;2024-01-30T07:17:58;0.60;99.90
1702;DHT22;848;48.354;10.064;2024-01-30T07:20:25;0.60;99.90
1702;DHT22;848;48.354;10.064;2024-01-30T07:22:52;0.70;99.90
1702;DHT22;848;48.354;10.064;2024-01-30T07:25:18;0.80;99.90
1702;DHT22;848;48.354;10.064;2024-01-30T07:27:47;0.80;99.90
1702;DHT22;848;48.354;10.064;2024-01-30T07:30:14;0.90;99.90
1702;DHT22;848;48.354;10.064;2024-01-30T07:32:43;0.90;99.90
1702;DHT22;848;48.354;10.064;2024-01-30T07:35:10;1.00;99.90
1702;DHT22;848;48.354;10.064;2024-01-30T07:37:37;1.10;99.90
1702;DHT22;848;48.354;10.064;2024-01-30T07:40:05;1.20;99.90
1702;DHT22;848;48.354;10.064;2024-01-30T07:42:32;1.20;99.90
1702;DHT22;848;48.354;10.064;2024-01-30T07:44:59;1.30;99.90
1702;DHT22;848;48.354;10.064;2024-01-30T07:47:26;1.40;99.90
1702;DHT22;848;48.354;10.064;2024-01-30T07:49:54;1.50;99.90
1702;DHT22;848;48.354;10.064;2024-01-30T07:52:21;1.60;99.90
1702;DHT22;848;48.354;10.064;2024-01-30T07:54:48;1.60;99.90
1702;DHT22;848;48.354;10.064;2024-01-30T07:57:15;1.70;99.90
1702;DHT22;848;48.354;10.064;2024-01-30T07:59:42;1.70;99.90
1702;DHT22;848;48.354;10.064;2024-01-30T08:02:11;1.70;99.90
1702;DHT22;848;48.354;10.064;2024-01-30T08:04:38;1.70;99.90
1702;DHT22;848;48.354;10.064;2024-01-30T08:07:06;1.90;99.90
1702;DHT22;848;48.354;10.064;2024-01-30T08:09:33;1.90;99.90
1702;DHT22;848;48.354;10.064;2024-01-30T08:12:00;2.00;99.90
1702;DHT22;848;48.354;10.064;2024-01-30T08:14:27;2.10;99.90
1702;DHT22;848;48.354;10.064;2024-01-30T08:16:54;2.30;99.90
1702;DHT22;848;48.354;10.064;2024-01-30T08:19:21;2.40;99.90
1702;DHT22;848;48.354;10.064;2024-01-30T08:21:47;2.50;99.90
1702;DHT22;848;48.354;10.064;2024-01-30T08:24:16;2.70;99.90
1702;DHT22;848;48.354;10.064;2024-01-30T08:26:43;2.80;99.90
1702;DHT22;848;48.354;10.064;2024-01-30T08:29:09;2.90;99.90
1702;DHT22;848;48.354;10.064;2024-01-30T08:31:36;3.00;99.90
1702;DHT22;848;48.354;10.064;2024-01-30T08:34:03;3.10;99.90
1702;DHT22;848;48.354;10.064;2024-01-30T08:36:30;3.20;99.90
1702;DHT22;848;48.354;10.064;2024-01-30T08:38:57;3.30;99.90
1702;DHT22;848;48.354;10.064;2024-01-30T08:41:25;3.50;99.90
1702;DHT22;848;48.354;10.064;2024-01-30T08:43:52;3.60;99.90
1702;DHT22;848;48.354;10.064;2024-01-30T08:46:20;3.60;99.90
1702;DHT22;848;48.354;10.064;2024-01-30T08:48:47;3.70;99.90
1702;DHT22;848;48.354;10.064;2024-01-30T08:51:14;3.80;99.90
1702;DHT22;848;48.354;10.064;2024-01-30T08:53:41;3.90;99.90
1702;DHT22;848;48.354;10.064;2024-01-30T08:56:08;4.00;99.90
1702;DHT22;848;48.354;10.064;2024-01-30T08:58:36;4.00;99.90
1702;DHT22;848;48.354;10.064;2024-01-30T09:01:04;4.10;99.90
1702;DHT22;848;48.354;10.064;2024-01-30T09:03:31;4.20;99.90
1702;DHT22;848;48.354;10.064;2024-01-30T09:05:58;4.20;99.90
1702;DHT22;848;48.354;10.064;2024-01-30T09:08:25;4.30;99.90
1702;DHT22;848;48.354;10.064;2024-01-30T09:10:51;4.40;99.90
1702;DHT22;848;48.354;10.064;2024-01-30T09:13:18;4.40;99.90
1702;DHT22;848;48.354;10.064;2024-01-30T09:15:47;4.40;99.90
1702;DHT22;848;48.354;10.064;2024-01-30T09:18:13;4.60;99.90
1702;DHT22;848;48.354;10.064;2024-01-30T09:20:40;4.50;99.90
1702;DHT22;848;48.354;10.064;2024-01-30T09:23:07;4.60;99.90
1702;DHT22;848;48.354;10.064;2024-01-30T09:25:34;4.50;99.90
1702;DHT22;848;48.354;10.064;2024-01-30T09:28:01;4.40;99.90
1702;DHT22;848;48.354;10.064;2024-01-30T09:30:28;4.40;99.90
1702;DHT22;848;48.354;10.064;2024-01-30T09:32:56;4.40;99.90
1702;DHT22;848;48.354;10.064;2024-01-30T09:35:23;4.40;99.90
1702;DHT22;848;48.354;10.064;2024-01-30T09:37:50;4.40;99.90
1702;DHT22;848;48.354;10.064;2024-01-30T09:40:17;4.50;99.90
1702;DHT22;848;48.354;10.064;2024-01-30T09:42:46;4.70;99.90
1702;DHT22;848;48.354;10.064;2024-01-30T09:45:14;4.80;99.90
1702;DHT22;848;48.354;10.064;2024-01-30T09:47:42;5.00;99.90
1702;DHT22;848;48.354;10.064;2024-01-30T09:50:11;5.00;99.90
1702;DHT22;848;48.354;10.064;2024-01-30T09:52:39;5.00;99.90
1702;DHT22;848;48.354;10.064;2024-01-30T09:55:07;5.00;99.90
1702;DHT22;848;48.354;10.064;2024-01-30T09:57:34;4.80;99.90
1702;DHT22;848;48.354;10.064;2024-01-30T10:00:01;4.80;99.90
1702;DHT22;848;48.354;10.064;2024-01-30T10:02:28;4.80;99.90
1702;DHT22;848;48.354;10.064;2024-01-30T10:04:55;4.80;99.90
1702;DHT22;848;48.354;10.064;2024-01-30T10:07:23;4.80;99.90
1702;DHT22;848;48.354;10.064;2024-01-30T10:09:50;4.80;99.90
1702;DHT22;848;48.354;10.064;2024-01-30T10:12:17;4.80;99.90
1702;DHT22;848;48.354;10.064;2024-01-30T10:14:43;5.00;99.90
1702;DHT22;848;48.354;10.064;2024-01-30T10:17:12;5.00;99.90
1702;DHT22;848;48.354;10.064;2024-01-30T10:19:40;5.00;99.90
1702;DHT22;848;48.354;10.064;2024-01-30T10:22:07;5.10;99.90
1702;DHT22;848;48.354;10.064;2024-01-30T10:24:36;5.20;99.90
1702;DHT22;848;48.354;10.064;2024-01-30T10:27:05;5.30;99.90
1702;DHT22;848;48.354;10.064;2024-01-30T10:29:32;5.40;99.90
1702;DHT22;848;48.354;10.064;2024-01-30T10:31:59;5.50;99.90
1702;DHT22;848;48.354;10.064;2024-01-30T10:34:26;5.70;99.90
1702;DHT22;848;48.354;10.064;2024-01-30T10:37:00;5.90;99.90
1702;DHT22;848;48.354;10.064;2024-01-30T10:39:32;5.90;99.90
1702;DHT22;848;48.354;10.064;2024-01-30T10:42:04;6.00;99.90
1702;DHT22;848;48.354;10.064;2024-01-30T10:44:38;6.10;99.90
1702;DHT22;848;48.354;10.064;2024-01-30T10:47:12;6.10;99.90
1702;DHT22;848;48.354;10.064;2024-01-30T10:49:41;6.20;99.90
1702;DHT22;848;48.354;10.064;2024-01-30T10:52:09;6.10;99.90
1702;DHT22;848;48.354;10.064;2024-01-30T10:54:37;6.20;99.90
1702;DHT22;848;48.354;10.064;2024-01-30T10:57:07;6.20;99.90
1702;DHT22;848;48.354;10.064;2024-01-30T10:59:37;6.30;99.90
1702;DHT22;848;48.354;10.064;2024-01-30T11:02:04;6.30;99.90
1702;DHT22;848;48.354;10.064;2024-01-30T11:04:36;6.30;99.90
1702;DHT22;848;48.354;10.064;2024-01-30T11:07:13;6.40;99.90
1702;DHT22;848;48.354;10.064;2024-01-30T11:09:40;6.30;99.90
1702;DHT22;848;48.354;10.064;2024-01-30T11:12:26;6.40;99.90
1702;DHT22;848;48.354;10.064;2024-01-30T11:15:02;6.40;99.90
1702;DHT22;848;48.354;10.064;2024-01-30T11:17:43;6.50;99.90
1702;DHT22;848;48.354;10.064;2024-01-30T11:20:11;6.60;99.90
1702;DHT22;848;48.354;10.064;2024-01-30T11:22:41;6.70;99.90
1702;DHT22;848;48.354;10.064;2024-01-30T11:25:12;6.70;99.90
1702;DHT22;848;48.354;10.064;2024-01-30T11:27:45;6.70;99.90
1702;DHT22;848;48.354;10.064;2024-01-30T11:30:21;6.70;99.90
1702;DHT22;848;48.354;10.064;2024-01-30T11:33:00;6.80;99.90
1702;DHT22;848;48.354;10.064;2024-01-30T11:35:30;6.90;99.90
1702;DHT22;848;48.354;10.064;2024-01-30T11:37:58;7.10;99.90
1702;DHT22;848;48.354;10.064;2024-01-30T11:40:27;7.00;99.90
1702;DHT22;848;48.354;10.064;2024-01-30T11:45:07;7.00;99.90
1702;DHT22;848;48.354;10.064;2024-01-30T11:47:35;7.30;99.90
1702;DHT22;848;48.354;10.064;2024-01-30T11:50:03;7.40;99.90
1702;DHT22;848;48.354;10.064;2024-01-30T11:52:32;7.40;99.90
1702;DHT22;848;48.354;10.064;2024-01-30T11:54:59;7.60;99.90
1702;DHT22;848;48.354;10.064;2024-01-30T11:57:27;7.50;99.90
1702;DHT22;848;48.354;10.064;2024-01-30T11:59:54;7.50;99.90
1702;DHT22;848;48.354;10.064;2024-01-30T12:02:22;7.50;99.90
1702;DHT22;848;48.354;10.064;2024-01-30T12:04:49;7.50;99.90
1702;DHT22;848;48.354;10.064;2024-01-30T12:07:16;7.50;99.90
1702;DHT22;848;48.354;10.064;2024-01-30T12:10:08;7.50;99.90
1702;DHT22;848;48.354;10.064;2024-01-30T12:12:46;7.70;99.90
1702;DHT22;848;48.354;10.064;2024-01-30T12:15:14;7.70;99.90
1702;DHT22;848;48.354;10.064;2024-01-30T12:17:42;7.80;99.90
1702;DHT22;848;48.354;10.064;2024-01-30T12:20:11;7.80;99.90
1702;DHT22;848;48.354;10.064;2024-01-30T12:22:39;7.90;99.90
1702;DHT22;848;48.354;10.064;2024-01-30T12:25:08;7.90;99.90
1702;DHT22;848;48.354;10.064;2024-01-30T12:27:35;8.00;99.90
1702;DHT22;848;48.354;10.064;2024-01-30T12:30:05;8.00;99.90
1702;DHT22;848;48.354;10.064;2024-01-30T12:32:34;7.90;99.90
1702;DHT22;848;48.354;10.064;2024-01-30T12:35:03;8.00;99.90
1702;DHT22;848;48.354;10.064;2024-01-30T12:37:30;8.00;99.90
1702;DHT22;848;48.354;10.064;2024-01-30T12:39:58;8.00;99.90
1702;DHT22;848;48.354;10.064;2024-01-30T12:42:27;8.00;99.90
1702;DHT22;848;48.354;10.064;2024-01-30T12:44:54;8.00;99.90
1702;DHT22;848;48.354;10.064;2024-01-30T12:47:22;8.10;99.90
1702;DHT22;848;48.354;10.064;2024-01-30T12:49:56;8.20;99.90
1702;DHT22;848;48.354;10.064;2024-01-30T12:52:24;8.10;99.90
1702;DHT22;848;48.354;10.064;2024-01-30T12:54:52;8.10;99.90
1702;DHT22;848;48.354;10.064;2024-01-30T12:57:19;8.30;99.90
1702;DHT22;848;48.354;10.064;2024-01-30T12:59:46;8.30;99.90
1702;DHT22;848;48.354;10.064;2024-01-30T13:02:13;8.40;99.90
1702;DHT22;848;48.354;10.064;2024-01-30T13:04:41;8.40;99.90
1702;DHT22;848;48.354;10.064;2024-01-30T13:07:08;8.40;99.90
1702;DHT22;848;48.354;10.064;2024-01-30T13:09:37;8.50;99.90
1702;DHT22;848;48.354;10.064;2024-01-30T13:12:04;8.50;99.90
1702;DHT22;848;48.354;10.064;2024-01-30T13:14:31;8.60;99.90
1702;DHT22;848;48.354;10.064;2024-01-30T13:16:58;8.60;99.90
1702;DHT22;848;48.354;10.064;2024-01-30T13:19:25;8.70;99.90
1702;DHT22;848;48.354;10.064;2024-01-30T13:21:52;8.70;99.90
1702;DHT22;848;48.354;10.064;2024-01-30T13:24:19;8.70;99.90
1702;DHT22;848;48.354;10.064;2024-01-30T13:26:48;8.90;99.90
1702;DHT22;848;48.354;10.064;2024-01-30T13:29:15;8.80;99.90
1702;DHT22;848;48.354;10.064;2024-01-30T13:31:42;8.90;99.90
1702;DHT22;848;48.354;10.064;2024-01-30T13:34:11;8.90;99.90
1702;DHT22;848;48.354;10.064;2024-01-30T13:36:39;8.90;99.90
1702;DHT22;848;48.354;10.064;2024-01-30T13:39:06;8.80;99.90
1702;DHT22;848;48.354;10.064;2024-01-30T13:41:35;8.90;99.90
1702;DHT22;848;48.354;10.064;2024-01-30T13:44:04;8.80;99.90
1702;DHT22;848;48.354;10.064;2024-01-30T13:46:31;8.80;99.90
1702;DHT22;848;48.354;10.064;2024-01-30T13:48:58;8.80;99.90
1702;DHT22;848;48.354;10.064;2024-01-30T13:51:25;8.70;99.90
1702;DHT22;848;48.354;10.064;2024-01-30T13:53:52;8.70;99.90
1702;DHT22;848;48.354;10.064;2024-01-30T13:56:19;8.70;99.90
1702;DHT22;848;48.354;10.064;2024-01-30T13:58:46;8.70;99.90
1702;DHT22;848;48.354;10.064;2024-01-30T14:01:14;8.70;99.90
1702;DHT22;848;48.354;10.064;2024-01-30T14:03:41;8.60;99.90
1702;DHT22;848;48.354;10.064;2024-01-30T14:06:08;8.60;99.90
1702;DHT22;848;48.354;10.064;2024-01-30T14:08:35;8.60;99.90
1702;DHT22;848;48.354;10.064;2024-01-30T14:11:02;8.60;99.90
1702;DHT22;848;48.354;10.064;2024-01-30T14:13:30;8.60;99.90
1702;DHT22;848;48.354;10.064;2024-01-30T14:15:58;8.60;99.90
1702;DHT22;848;48.354;10.064;2024-01-30T14:18:26;8.70;99.90
1702;DHT22;848;48.354;10.064;2024-01-30T14:20:53;8.70;99.90
1702;DHT22;848;48.354;10.064;2024-01-30T14:23:21;8.70;99.90
1702;DHT22;848;48.354;10.064;2024-01-30T14:25:48;8.70;99.90
1702;DHT22;848;48.354;10.064;2024-01-30T14:28:17;8.60;99.90
1702;DHT22;848;48.354;10.064;2024-01-30T14:30:43;8.60;99.90
1702;DHT22;848;48.354;10.064;2024-01-30T14:33:10;8.60;99.90
1702;DHT22;848;48.354;10.064;2024-01-30T14:35:39;8.50;99.90
1702;DHT22;848;48.354;10.064;2024-01-30T14:38:05;8.50;99.90
1702;DHT22;848;48.354;10.064;2024-01-30T14:40:33;8.40;99.90
1702;DHT22;848;48.354;10.064;2024-01-30T14:43:00;8.30;99.90
1702;DHT22;848;48.354;10.064;2024-01-30T14:45:26;8.30;99.90
1702;DHT22;848;48.354;10.064;2024-01-30T14:47:53;8.20;99.90
1702;DHT22;848;48.354;10.064;2024-01-30T14:50:21;8.30;99.90
1702;DHT22;848;48.354;10.064;2024-01-30T14:52:50;8.30;99.90
1702;DHT22;848;48.354;10.064;2024-01-30T14:55:17;8.20;99.90
1702;DHT22;848;48.354;10.064;2024-01-30T14:57:44;8.20;99.90
1702;DHT22;848;48.354;10.064;2024-01-30T15:00:12;8.20;99.90
1702;DHT22;848;48.354;10.064;2024-01-30T15:02:40;8.20;99.90
1702;DHT22;848;48.354;10.064;2024-01-30T15:05:06;8.20;99.90
1702;DHT22;848;48.354;10.064;2024-01-30T15:07:33;8.20;99.90
1702;DHT22;848;48.354;10.064;2024-01-30T15:10:02;8.20;99.90
1702;DHT22;848;48.354;10.064;2024-01-30T15:12:30;8.30;99.90
1702;DHT22;848;48.354;10.064;2024-01-30T15:14:56;8.20;99.90
1702;DHT22;848;48.354;10.064;2024-01-30T15:17:23;8.20;99.90
1702;DHT22;848;48.354;10.064;2024-01-30T15:19:50;8.20;99.90
1702;DHT22;848;48.354;10.064;2024-01-30T15:22:17;8.10;99.90
1702;DHT22;848;48.354;10.064;2024-01-30T15:24:44;8.10;99.90
1702;DHT22;848;48.354;10.064;2024-01-30T15:27:12;8.00;99.90
1702;DHT22;848;48.354;10.064;2024-01-30T15:29:39;7.90;99.90
1702;DHT22;848;48.354;10.064;2024-01-30T15:32:06;7.80;99.90
1702;DHT22;848;48.354;10.064;2024-01-30T15:34:33;7.80;99.90
1702;DHT22;848;48.354;10.064;2024-01-30T15:37:00;7.70;99.90
1702;DHT22;848;48.354;10.064;2024-01-30T15:39:28;7.60;99.90
1702;DHT22;848;48.354;10.064;2024-01-30T15:41:55;7.60;99.90
1702;DHT22;848;48.354;10.064;2024-01-30T15:44:25;7.60;99.90
1702;DHT22;848;48.354;10.064;2024-01-30T15:46:52;7.40;99.90
1702;DHT22;848;48.354;10.064;2024-01-30T15:49:19;7.30;99.90
1702;DHT22;848;48.354;10.064;2024-01-30T15:51:45;7.30;99.90
1702;DHT22;848;48.354;10.064;2024-01-30T15:54:12;7.30;99.90
1702;DHT22;848;48.354;10.064;2024-01-30T15:56:40;7.20;99.90
1702;DHT22;848;48.354;10.064;2024-01-30T15:59:06;7.10;99.90
1702;DHT22;848;48.354;10.064;2024-01-30T16:01:35;7.10;99.90
1702;DHT22;848;48.354;10.064;2024-01-30T16:04:01;7.00;99.90
1702;DHT22;848;48.354;10.064;2024-01-30T16:06:28;7.00;99.90
1702;DHT22;848;48.354;10.064;2024-01-30T16:08:55;7.00;99.90
1702;DHT22;848;48.354;10.064;2024-01-30T16:11:22;7.00;99.90
1702;DHT22;848;48.354;10.064;2024-01-30T16:13:49;7.20;99.90
1702;DHT22;848;48.354;10.064;2024-01-30T16:16:17;7.00;99.90
1702;DHT22;848;48.354;10.064;2024-01-30T16:18:46;7.00;99.90
1702;DHT22;848;48.354;10.064;2024-01-30T16:21:13;7.00;99.90